createdAt,value
2019-02-26T00:00:42.338Z,7.50
2019-02-26T00:03:09.009Z,7.50
2019-02-26T00:05:38.016Z,7.50
2019-02-26T00:08:06.629Z,7.40
2019-02-26T00:10:37.262Z,7.40
2019-02-26T00:13:05.466Z,7.30
2019-02-26T00:15:35.847Z,7.30
2019-02-26T00:18:07.461Z,7.30
2019-02-26T00:20:37.155Z,7.20
2019-02-26T00:23:05.021Z,7.30
2019-02-26T00:25:33.495Z,7.30
2019-02-26T00:28:02.069Z,7.30
2019-02-26T00:30:31.283Z,7.20
2019-02-26T00:33:02.879Z,7.20
2019-02-26T00:35:31.157Z,7.20
2019-02-26T00:37:59.625Z,7.20
2019-02-26T00:40:28.167Z,7.20
2019-02-26T00:42:59.374Z,7.20
2019-02-26T00:45:27.768Z,7.20
2019-02-26T00:47:57.329Z,7.20
2019-02-26T00:50:27.969Z,7.20
2019-02-26T00:52:57.056Z,7.20
2019-02-26T00:55:29.386Z,7.10
2019-02-26T00:57:56.969Z,7.10
2019-02-26T01:00:28.421Z,7.10
2019-02-26T01:02:57.067Z,7.10
2019-02-26T01:05:25.707Z,7.10
2019-02-26T01:07:54.461Z,7.10
2019-02-26T01:10:24.812Z,7.10
2019-02-26T01:12:53.465Z,7.10
2019-02-26T01:15:22.177Z,7.10
2019-02-26T01:17:50.726Z,7.10
2019-02-26T01:20:22.047Z,7.20
2019-02-26T01:22:49.732Z,7.10
2019-02-26T01:25:20.548Z,7.10
2019-02-26T01:27:52.618Z,7.10
2019-02-26T01:30:23.500Z,7.00
2019-02-26T01:32:48.937Z,6.90
2019-02-26T01:35:17.646Z,6.90
2019-02-26T01:37:46.169Z,6.90
2019-02-26T01:40:16.380Z,6.90
2019-02-26T01:42:50.154Z,6.80
2019-02-26T01:45:15.501Z,6.80
2019-02-26T01:47:46.249Z,6.80
2019-02-26T01:50:16.167Z,6.80
2019-02-26T01:52:44.945Z,6.80
2019-02-26T01:55:13.546Z,6.80
2019-02-26T01:57:43.390Z,6.70
2019-02-26T02:00:18.352Z,6.70
2019-02-26T02:02:47.066Z,6.70
2019-02-26T02:05:15.959Z,6.70
2019-02-26T02:07:46.682Z,6.60
2019-02-26T02:10:15.949Z,6.60
2019-02-26T02:12:44.637Z,6.50
2019-02-26T02:15:17.910Z,6.50
2019-02-26T02:17:45.467Z,6.50
2019-02-26T02:20:21.268Z,6.50
2019-02-26T02:22:47.331Z,6.50
2019-02-26T02:25:15.941Z,6.40
2019-02-26T02:27:47.571Z,6.40
2019-02-26T02:30:23.079Z,6.30
2019-02-26T02:32:53.644Z,6.30
2019-02-26T02:35:19.606Z,6.30
2019-02-26T02:37:50.811Z,6.20
2019-02-26T02:40:18.856Z,6.20
2019-02-26T02:42:49.252Z,6.20
2019-02-26T02:45:20.792Z,6.30
2019-02-26T02:47:47.930Z,6.30
2019-02-26T02:50:18.368Z,6.40
2019-02-26T02:52:46.796Z,6.50
2019-02-26T02:55:18.546Z,6.50
2019-02-26T02:57:48.679Z,6.60
2019-02-26T03:00:16.546Z,6.60
2019-02-26T03:02:46.494Z,6.60
2019-02-26T03:05:15.490Z,6.60
2019-02-26T03:07:46.051Z,6.60
2019-02-26T03:10:15.067Z,6.50
2019-02-26T03:12:47.635Z,6.50
2019-02-26T03:15:15.816Z,6.50
2019-02-26T03:17:44.449Z,6.40
2019-02-26T03:20:15.953Z,6.30
2019-02-26T03:22:46.708Z,6.30
2019-02-26T03:25:20.958Z,6.20
2019-02-26T03:27:48.272Z,6.20
2019-02-26T03:30:26.247Z,6.20
2019-02-26T03:32:55.745Z,6.20
2019-02-26T03:35:22.709Z,6.10
2019-02-26T03:37:52.409Z,6.10
2019-02-26T03:40:20.921Z,6.10
2019-02-26T03:42:50.307Z,6.10
2019-02-26T03:45:23.614Z,6.10
2019-02-26T03:47:49.266Z,6.20
2019-02-26T03:50:17.957Z,6.20
2019-02-26T03:52:46.518Z,6.20
2019-02-26T03:55:18.321Z,6.20
2019-02-26T03:57:47.555Z,6.30
2019-02-26T04:00:19.987Z,6.30
2019-02-26T04:02:51.218Z,6.30
2019-02-26T04:05:18.750Z,6.30
2019-02-26T04:07:49.868Z,6.30
2019-02-26T04:10:17.708Z,6.30
2019-02-26T04:12:48.752Z,6.30
2019-02-26T04:15:17.602Z,6.30
2019-02-26T04:17:46.253Z,6.30
2019-02-26T04:20:15.946Z,6.30
2019-02-26T04:22:49.008Z,6.30
2019-02-26T04:25:35.472Z,6.30
2019-02-26T04:28:11.666Z,6.30
2019-02-26T04:31:02.821Z,6.20
2019-02-26T04:33:53.755Z,6.20
2019-02-26T04:36:28.710Z,6.20
2019-02-26T04:39:22.119Z,6.20
2019-02-26T04:42:16.845Z,6.10
2019-02-26T04:45:09.038Z,6.10
2019-02-26T04:48:00.722Z,6.10
2019-02-26T04:50:32.278Z,6.10
2019-02-26T04:53:02.140Z,6.10
2019-02-26T04:55:32.275Z,6.10
2019-02-26T04:57:59.643Z,6.10
2019-02-26T05:00:30.468Z,6.10
2019-02-26T05:02:58.555Z,6.10
2019-02-26T05:05:28.546Z,6.10
2019-02-26T05:07:57.363Z,6.10
2019-02-26T05:10:27.013Z,6.10
2019-02-26T05:13:00.235Z,6.10
2019-02-26T05:15:31.121Z,6.10
2019-02-26T05:17:58.350Z,6.10
2019-02-26T05:20:26.904Z,6.10
2019-02-26T05:22:58.412Z,6.00
2019-02-26T05:25:26.246Z,6.10
2019-02-26T05:27:54.784Z,6.10
2019-02-26T05:30:23.466Z,6.00
2019-02-26T05:32:54.284Z,6.00
2019-02-26T05:35:23.409Z,6.10
2019-02-26T05:37:52.429Z,6.10
2019-02-26T05:40:22.254Z,6.10
2019-02-26T05:42:50.856Z,6.10
2019-02-26T05:45:21.517Z,6.10
2019-02-26T05:47:51.310Z,6.10
2019-02-26T05:50:19.945Z,6.10
2019-02-26T05:52:50.407Z,6.10
2019-02-26T05:55:20.722Z,6.10
2019-02-26T05:57:49.161Z,6.10
2019-02-26T06:00:21.580Z,6.10
2019-02-26T06:02:50.966Z,6.10
2019-02-26T06:05:20.555Z,6.10
2019-02-26T06:07:48.611Z,6.10
2019-02-26T06:10:19.443Z,6.10
2019-02-26T06:12:47.519Z,6.20
2019-02-26T06:15:20.201Z,6.10
2019-02-26T06:17:49.040Z,6.10
2019-02-26T06:20:23.667Z,6.20
2019-02-26T06:22:52.410Z,6.20
2019-02-26T06:25:24.458Z,6.20
2019-02-26T06:27:51.444Z,6.20
2019-02-26T06:30:19.993Z,6.20
2019-02-26T06:32:48.565Z,6.20
2019-02-26T06:35:19.416Z,6.20
2019-02-26T06:37:47.469Z,6.20
2019-02-26T06:40:17.181Z,6.30
2019-02-26T06:42:45.802Z,6.20
2019-02-26T06:45:16.580Z,6.30
2019-02-26T06:47:45.715Z,6.30
2019-02-26T06:50:16.565Z,6.30
2019-02-26T06:52:47.727Z,6.30
2019-02-26T06:55:15.895Z,6.30
2019-02-26T06:57:47.089Z,6.40
2019-02-26T07:00:16.861Z,6.40
2019-02-26T07:02:46.584Z,6.40
2019-02-26T07:05:15.398Z,6.40
2019-02-26T07:07:43.979Z,6.40
2019-02-26T07:10:18.460Z,6.40
2019-02-26T07:12:48.136Z,6.40
2019-02-26T07:15:16.393Z,6.40
2019-02-26T07:17:46.088Z,6.50
2019-02-26T07:20:15.098Z,6.50
2019-02-26T07:22:46.116Z,6.50
2019-02-26T07:25:16.473Z,6.50
2019-02-26T07:27:46.515Z,6.50
2019-02-26T07:30:15.193Z,6.50
2019-02-26T07:32:45.668Z,6.50
2019-02-26T07:35:16.629Z,6.60
2019-02-26T07:37:44.241Z,6.60
2019-02-26T07:40:15.650Z,6.60
2019-02-26T07:42:44.667Z,6.60
2019-02-26T07:45:15.311Z,6.60
2019-02-26T07:47:45.188Z,6.70
2019-02-26T07:50:14.983Z,6.70
2019-02-26T07:52:44.223Z,6.70
2019-02-26T07:55:15.355Z,6.70
2019-02-26T07:57:45.472Z,6.70
2019-02-26T08:00:16.425Z,6.80
2019-02-26T08:02:44.974Z,6.80
2019-02-26T08:05:13.589Z,6.80
2019-02-26T08:07:46.095Z,6.90
2019-02-26T08:10:16.986Z,6.90
2019-02-26T08:12:46.164Z,7.00
2019-02-26T08:15:15.590Z,7.00
2019-02-26T08:17:47.805Z,7.00
2019-02-26T08:20:15.137Z,7.00
2019-02-26T08:22:43.751Z,7.10
2019-02-26T08:25:13.125Z,7.10
2019-02-26T08:27:41.745Z,7.10
2019-02-26T08:30:14.800Z,7.10
2019-02-26T08:32:46.181Z,7.20
2019-02-26T08:35:18.121Z,7.20
2019-02-26T08:37:44.173Z,7.20
2019-02-26T08:40:14.947Z,7.20
2019-02-26T08:42:43.473Z,7.20
2019-02-26T08:45:18.275Z,7.30
2019-02-26T08:47:47.762Z,7.30
2019-02-26T08:50:16.458Z,7.50
2019-02-26T08:52:49.436Z,7.60
2019-02-26T08:55:18.402Z,7.70
2019-02-26T08:57:46.104Z,7.80
2019-02-26T09:00:21.540Z,7.90
2019-02-26T09:02:53.810Z,8.00
2019-02-26T09:05:20.306Z,8.10
2019-02-26T09:07:50.422Z,8.20
2019-02-26T09:10:21.287Z,8.20
2019-02-26T09:12:51.702Z,8.20
2019-02-26T09:15:20.469Z,8.00
2019-02-26T09:17:49.044Z,7.90
2019-02-26T09:20:21.288Z,7.90
2019-02-26T09:22:51.408Z,8.10
2019-02-26T09:25:22.746Z,8.30
2019-02-26T09:28:09.813Z,8.50
2019-02-26T09:30:40.734Z,8.50
2019-02-26T09:33:10.910Z,8.50
2019-02-26T09:35:39.078Z,8.60
2019-02-26T09:38:07.617Z,8.60
2019-02-26T09:40:36.329Z,8.50
2019-02-26T09:43:06.157Z,8.50
2019-02-26T09:45:34.809Z,8.60
2019-02-26T09:48:03.425Z,8.70
2019-02-26T09:50:32.176Z,8.70
2019-02-26T09:53:00.782Z,8.70
2019-02-26T09:55:29.408Z,8.80
2019-02-26T09:57:58.039Z,8.90
2019-02-26T10:00:29.322Z,9.00
2019-02-26T10:02:56.906Z,9.10
2019-02-26T10:05:25.483Z,9.10
2019-02-26T10:07:56.862Z,9.30
2019-02-26T10:10:27.607Z,9.30
2019-02-26T10:12:57.350Z,9.30
2019-02-26T10:15:24.873Z,9.30
2019-02-26T10:17:53.423Z,9.50
2019-02-26T10:20:27.892Z,9.50
2019-02-26T10:22:57.155Z,9.60
2019-02-26T10:25:27.945Z,9.50
2019-02-26T10:27:54.257Z,9.40
2019-02-26T10:30:23.047Z,9.40
2019-02-26T10:32:51.588Z,9.40
2019-02-26T10:35:32.396Z,9.50
2019-02-26T10:38:00.350Z,9.50
2019-02-26T10:40:35.218Z,9.50
2019-02-26T10:42:59.422Z,9.60
2019-02-26T10:45:36.009Z,9.70
2019-02-26T10:48:02.838Z,9.70
2019-02-26T10:50:32.160Z,9.90
2019-02-26T10:53:07.248Z,9.90
2019-02-26T10:55:38.136Z,9.80
2019-02-26T10:58:06.774Z,9.70
2019-02-26T11:00:34.793Z,9.90
2019-02-26T11:03:02.041Z,9.90
2019-02-26T11:05:30.844Z,9.80
2019-02-26T11:08:02.378Z,9.70
2019-02-26T11:10:29.755Z,9.70
2019-02-26T11:12:59.614Z,9.80
2019-02-26T11:15:32.741Z,9.90
2019-02-26T11:17:58.614Z,10.00
2019-02-26T11:20:28.272Z,10.20
2019-02-26T11:22:57.492Z,10.30
2019-02-26T11:25:27.410Z,10.30
2019-02-26T11:27:56.293Z,10.30
2019-02-26T11:30:29.364Z,10.30
2019-02-26T11:33:02.506Z,10.20
2019-02-26T11:35:29.269Z,10.20
2019-02-26T11:37:58.283Z,10.20
2019-02-26T11:40:30.379Z,10.20
2019-02-26T11:42:59.925Z,10.30
2019-02-26T11:45:28.199Z,10.40
2019-02-26T11:47:58.134Z,10.30
2019-02-26T11:50:28.498Z,10.30
2019-02-26T11:52:57.507Z,10.40
2019-02-26T11:55:28.613Z,10.40
2019-02-26T11:57:56.451Z,10.50
2019-02-26T12:00:35.974Z,10.50
2019-02-26T12:03:01.476Z,10.50
2019-02-26T12:05:33.430Z,10.50
2019-02-26T12:08:00.330Z,10.60
2019-02-26T12:10:31.835Z,10.70
2019-02-26T12:13:02.010Z,10.80
2019-02-26T12:15:30.127Z,10.80
2019-02-26T12:17:59.857Z,10.70
2019-02-26T12:20:28.405Z,10.60
2019-02-26T12:22:56.955Z,10.70
2019-02-26T12:25:25.570Z,10.70
2019-02-26T12:27:54.045Z,10.60
2019-02-26T12:30:23.792Z,10.60
2019-02-26T12:32:54.439Z,10.60
2019-02-26T12:35:22.742Z,10.60
2019-02-26T12:37:53.636Z,10.70
2019-02-26T12:40:23.358Z,10.80
2019-02-26T12:42:52.250Z,10.80
2019-02-26T12:45:21.773Z,10.80
2019-02-26T12:47:54.505Z,10.80
2019-02-26T12:50:27.256Z,10.80
2019-02-26T12:52:57.122Z,10.80
2019-02-26T12:55:31.219Z,10.80
2019-02-26T12:57:56.423Z,10.80
2019-02-26T13:00:26.294Z,10.80
2019-02-26T13:02:54.980Z,10.80
2019-02-26T13:05:23.669Z,10.80
2019-02-26T13:07:52.247Z,10.80
2019-02-26T13:10:24.673Z,10.80
2019-02-26T13:12:58.910Z,10.90
2019-02-26T13:15:23.770Z,11.00
2019-02-26T13:17:54.401Z,11.00
2019-02-26T13:20:24.022Z,10.90
2019-02-26T13:22:56.322Z,10.90
2019-02-26T13:25:26.864Z,10.90
2019-02-26T13:27:53.327Z,10.90
2019-02-26T13:30:25.709Z,10.90
2019-02-26T13:32:58.094Z,10.80
2019-02-26T13:35:24.939Z,10.80
2019-02-26T13:38:01.987Z,10.80
2019-02-26T13:40:37.896Z,10.80
2019-02-26T13:45:29.535Z,10.60
2019-02-26T13:48:01.328Z,10.60
2019-02-26T13:50:32.171Z,10.60
2019-02-26T13:53:00.839Z,10.60
2019-02-26T13:55:29.545Z,10.60
2019-02-26T13:57:58.143Z,10.60
2019-02-26T14:00:27.142Z,10.60
2019-02-26T14:02:55.821Z,10.60
2019-02-26T14:05:24.506Z,10.50
2019-02-26T14:07:53.188Z,10.40
2019-02-26T14:10:23.737Z,10.40
2019-02-26T14:12:52.544Z,10.30
2019-02-26T14:15:28.813Z,10.20
2019-02-26T14:17:57.441Z,10.10
2019-02-26T14:20:26.058Z,10.00
2019-02-26T14:22:54.637Z,10.00
2019-02-26T14:25:23.211Z,10.00
2019-02-26T14:27:51.924Z,10.00
2019-02-26T14:30:21.755Z,9.90
2019-02-26T14:32:50.375Z,9.90
2019-02-26T14:35:19.052Z,9.90
2019-02-26T14:37:47.705Z,9.90
2019-02-26T14:40:20.777Z,9.80
2019-02-26T14:42:49.465Z,9.80
2019-02-26T14:45:23.897Z,9.80
2019-02-26T14:47:52.652Z,9.70
2019-02-26T14:50:22.124Z,9.70
2019-02-26T14:52:50.689Z,9.70
2019-02-26T14:55:19.379Z,9.60
2019-02-26T14:57:48.174Z,9.60
2019-02-26T15:00:31.341Z,9.60
2019-02-26T15:03:00.130Z,9.50
2019-02-26T15:05:28.666Z,9.30
2019-02-26T15:07:57.242Z,9.40
2019-02-26T15:10:25.858Z,9.30
2019-02-26T15:12:54.709Z,9.20
2019-02-26T15:15:23.475Z,9.10
2019-02-26T15:17:52.050Z,9.00
2019-02-26T15:20:27.286Z,8.90
2019-02-26T15:22:55.870Z,8.80
2019-02-26T15:25:29.901Z,8.70
2019-02-26T15:28:04.965Z,8.60
2019-02-26T15:30:29.077Z,8.50
2019-02-26T15:32:57.688Z,8.40
2019-02-26T15:35:26.585Z,8.40
2019-02-26T15:37:55.229Z,8.40
2019-02-26T15:40:23.854Z,8.30
2019-02-26T15:42:55.517Z,8.20
2019-02-26T15:45:28.894Z,8.10
2019-02-26T15:47:58.065Z,8.00
2019-02-26T15:50:26.537Z,7.90
2019-02-26T15:52:55.187Z,7.80
2019-02-26T15:55:31.460Z,7.70
2019-02-26T15:58:03.073Z,7.60
2019-02-26T16:00:30.474Z,7.50
2019-02-26T16:03:00.009Z,7.50
2019-02-26T16:05:34.186Z,7.40
2019-02-26T16:08:02.795Z,7.30
2019-02-26T16:10:31.409Z,7.30
2019-02-26T16:13:05.909Z,7.20
2019-02-26T16:15:35.617Z,7.10
2019-02-26T16:18:04.302Z,7.00
2019-02-26T16:20:33.021Z,6.90
2019-02-26T16:23:01.702Z,6.80
2019-02-26T16:25:30.321Z,6.80
2019-02-26T16:27:58.969Z,6.70
2019-02-26T16:30:28.653Z,6.60
2019-02-26T16:32:57.272Z,6.50
2019-02-26T16:35:25.917Z,6.50
2019-02-26T16:37:54.533Z,6.40
2019-02-26T16:40:23.217Z,6.30
2019-02-26T16:42:51.943Z,6.30
2019-02-26T16:45:25.127Z,6.30
2019-02-26T16:47:53.919Z,6.20
2019-02-26T16:50:31.856Z,6.10
2019-02-26T16:53:01.142Z,6.00
2019-02-26T16:55:31.633Z,5.90
2019-02-26T16:58:03.170Z,5.90
2019-02-26T17:00:31.100Z,5.80
2019-02-26T17:03:00.757Z,5.80
2019-02-26T17:05:29.912Z,5.80
2019-02-26T17:07:58.799Z,5.70
2019-02-26T17:10:30.359Z,5.70
2019-02-26T17:13:01.971Z,5.70
2019-02-26T17:15:32.106Z,5.60
2019-02-26T17:18:00.829Z,5.50
2019-02-26T17:20:29.590Z,5.40
2019-02-26T17:22:58.214Z,5.40
2019-02-26T17:25:28.574Z,5.30
2019-02-26T17:27:57.324Z,5.30
2019-02-26T17:30:26.003Z,5.20
2019-02-26T17:32:54.693Z,5.20
2019-02-26T17:35:23.627Z,5.20
2019-02-26T17:37:52.332Z,5.20
2019-02-26T17:40:23.276Z,5.20
2019-02-26T17:42:51.961Z,5.20
2019-02-26T17:45:26.144Z,5.20
2019-02-26T17:47:56.821Z,5.20
2019-02-26T17:50:38.980Z,5.10
2019-02-26T17:53:07.938Z,5.00
2019-02-26T17:55:36.753Z,5.00
2019-02-26T17:58:09.788Z,5.00
2019-02-26T18:00:40.219Z,5.00
2019-02-26T18:03:08.859Z,5.00
2019-02-26T18:05:50.446Z,5.00
2019-02-26T18:08:07.869Z,5.00
2019-02-26T18:10:36.804Z,5.00
2019-02-26T18:13:05.471Z,4.90
2019-02-26T18:15:34.236Z,4.90
2019-02-26T18:18:02.875Z,4.80
2019-02-26T18:20:34.595Z,4.80
2019-02-26T18:23:03.215Z,4.70
2019-02-26T18:25:31.939Z,4.60
2019-02-26T18:28:00.590Z,4.50
2019-02-26T18:30:29.997Z,4.50
2019-02-26T18:32:59.310Z,4.50
2019-02-26T18:35:28.116Z,4.50
2019-02-26T18:37:56.747Z,4.60
2019-02-26T18:40:27.949Z,4.50
2019-02-26T18:42:55.754Z,4.50
2019-02-26T18:45:29.155Z,4.50
2019-02-26T18:47:57.912Z,4.50
2019-02-26T18:50:28.446Z,4.50
2019-02-26T18:52:58.298Z,4.50
2019-02-26T18:55:28.537Z,4.50
2019-02-26T18:57:57.687Z,4.40
2019-02-26T19:00:28.537Z,4.40
2019-02-26T19:02:57.160Z,4.40
2019-02-26T19:05:25.894Z,4.30
2019-02-26T19:07:54.446Z,4.20
2019-02-26T19:10:23.256Z,4.30
2019-02-26T19:12:51.913Z,4.30
2019-02-26T19:15:23.498Z,4.30
2019-02-26T19:17:53.899Z,4.30
2019-02-26T19:20:28.058Z,4.20
2019-02-26T19:23:02.519Z,4.20
2019-02-26T19:25:31.161Z,4.10
2019-02-26T19:27:59.780Z,4.00
2019-02-26T19:30:28.476Z,4.00
2019-02-26T19:32:57.076Z,4.00
2019-02-26T19:35:25.630Z,3.90
2019-02-26T19:37:56.801Z,3.90
2019-02-26T19:40:30.299Z,3.90
2019-02-26T19:42:59.258Z,3.80
2019-02-26T19:45:27.882Z,3.70
2019-02-26T19:47:56.622Z,3.70
2019-02-26T19:50:25.197Z,3.60
2019-02-26T19:52:57.064Z,3.60
2019-02-26T19:55:27.114Z,3.50
2019-02-26T19:57:55.764Z,3.50
2019-02-26T20:00:24.435Z,3.40
2019-02-26T20:02:53.005Z,3.30
2019-02-26T20:05:21.625Z,3.20
2019-02-26T20:07:50.294Z,3.20
2019-02-26T20:10:19.326Z,3.10
2019-02-26T20:12:47.948Z,3.00
2019-02-26T20:15:16.641Z,3.00
2019-02-26T20:17:48.995Z,2.90
2019-02-26T20:20:17.217Z,2.90
2019-02-26T20:22:45.924Z,2.90
2019-02-26T20:25:19.222Z,2.90
2019-02-26T20:27:47.850Z,2.90
2019-02-26T20:30:22.941Z,2.90
2019-02-26T20:35:26.238Z,2.90
2019-02-26T20:37:58.609Z,2.80
2019-02-26T20:40:25.345Z,2.80
2019-02-26T20:42:53.850Z,2.80
2019-02-26T20:45:22.866Z,2.80
2019-02-26T20:47:51.461Z,2.70
2019-02-26T20:50:21.389Z,2.70
2019-02-26T20:52:50.524Z,2.70
2019-02-26T20:55:21.610Z,2.60
2019-02-26T20:57:50.275Z,2.60
2019-02-26T21:00:24.945Z,2.60
2019-02-26T21:02:52.220Z,2.60
2019-02-26T21:05:20.887Z,2.70
2019-02-26T21:07:49.799Z,2.80
2019-02-26T21:10:19.567Z,2.80
2019-02-26T21:12:48.557Z,2.80
2019-02-26T21:15:24.765Z,2.80
2019-02-26T21:17:57.817Z,2.80
2019-02-26T21:20:23.751Z,2.90
2019-02-26T21:22:54.567Z,2.80
2019-02-26T21:25:22.433Z,2.80
2019-02-26T21:27:50.969Z,2.70
2019-02-26T21:30:21.549Z,2.70
2019-02-26T21:32:50.266Z,2.70
2019-02-26T21:35:20.651Z,2.60
2019-02-26T21:37:49.078Z,2.60
2019-02-26T21:40:17.822Z,2.70
2019-02-26T21:42:46.482Z,2.80
2019-02-26T21:45:18.620Z,2.80
2019-02-26T21:47:47.858Z,2.90
2019-02-26T21:50:16.739Z,2.90
2019-02-26T21:52:59.307Z,2.80
2019-02-26T21:55:16.305Z,2.80
2019-02-26T21:57:44.857Z,2.80
2019-02-26T22:00:20.463Z,2.70
2019-02-26T22:02:52.053Z,2.70
2019-02-26T22:05:19.357Z,2.60
2019-02-26T22:07:52.123Z,2.60
2019-02-26T22:10:20.517Z,2.60
2019-02-26T22:12:50.225Z,2.60
2019-02-26T22:15:18.839Z,2.70
2019-02-26T22:17:47.410Z,2.70
2019-02-26T22:20:35.408Z,2.60
2019-02-26T22:22:51.294Z,2.50
2019-02-26T22:25:20.152Z,2.40
2019-02-26T22:27:48.692Z,2.30
2019-02-26T22:30:21.471Z,2.10
2019-02-26T22:32:48.483Z,2.00
2019-02-26T22:35:17.100Z,1.80
2019-02-26T22:37:45.722Z,1.70
2019-02-26T22:40:15.165Z,1.60
2019-02-26T22:42:43.813Z,1.40
2019-02-26T22:45:15.427Z,1.30
2019-02-26T22:47:44.578Z,1.20
2019-02-26T22:50:14.532Z,1.10
2019-02-26T22:52:44.009Z,1.00
2019-02-26T22:55:17.619Z,0.90
2019-02-26T22:57:46.370Z,1.00
2019-02-26T23:00:50.841Z,0.70
2019-02-26T23:03:19.452Z,0.60
2019-02-26T23:05:48.137Z,0.50
2019-02-26T23:08:16.825Z,0.40
2019-02-26T23:10:45.642Z,0.40
2019-02-26T23:13:14.825Z,0.30
2019-02-26T23:15:45.917Z,0.20
2019-02-26T23:18:14.622Z,0.10
2019-02-26T23:20:43.394Z,0.10
2019-02-26T23:23:12.250Z,0.00
2019-02-26T23:25:41.803Z,0.00
2019-02-26T23:28:10.689Z,0.00
2019-02-26T23:30:39.940Z,-0.10
2019-02-26T23:33:08.562Z,-0.10
2019-02-26T23:35:37.846Z,-0.20
2019-02-26T23:38:08.518Z,-0.20
2019-02-26T23:40:36.931Z,-0.30
2019-02-26T23:43:05.613Z,-0.30
2019-02-26T23:45:34.558Z,-0.30
2019-02-26T23:48:07.666Z,-0.40
2019-02-26T23:50:33.452Z,-0.40
2019-02-26T23:53:02.072Z,-0.50
2019-02-26T23:55:30.685Z,-0.50
2019-02-26T23:57:59.301Z,-0.60
